sensor_id;sensor_type;location;lat;lon;timestamp;temperature;humidity
15274;DHT22;7738;49.532;11.156;2023-09-19T00:01:14;14.40;99.90
15274;DHT22;7738;49.532;11.156;2023-09-19T00:03:47;14.40;99.90
15274;DHT22;7738;49.532;11.156;2023-09-19T00:06:17;14.40;99.90
15274;DHT22;7738;49.532;11.156;2023-09-19T00:08:47;14.40;99.90
15274;DHT22;7738;49.532;11.156;2023-09-19T00:11:20;14.30;99.90
15274;DHT22;7738;49.532;11.156;2023-09-19T00:18:56;14.30;99.90
15274;DHT22;7738;49.532;11.156;2023-09-19T00:21:31;14.30;99.90
15274;DHT22;7738;49.532;11.156;2023-09-19T00:24:03;16.50;99.90
15274;DHT22;7738;49.532;11.156;2023-09-19T00:26:36;14.20;99.90
15274;DHT22;7738;49.532;11.156;2023-09-19T00:29:06;14.30;99.90
15274;DHT22;7738;49.532;11.156;2023-09-19T00:31:38;14.20;99.90
15274;DHT22;7738;49.532;11.156;2023-09-19T00:34:08;14.10;99.90
15274;DHT22;7738;49.532;11.156;2023-09-19T00:36:38;14.10;99.90
15274;DHT22;7738;49.532;11.156;2023-09-19T00:39:19;14.00;99.90
15274;DHT22;7738;49.532;11.156;2023-09-19T00:41:55;13.90;99.90
15274;DHT22;7738;49.532;11.156;2023-09-19T00:47:04;13.90;99.90
15274;DHT22;7738;49.532;11.156;2023-09-19T00:52:07;13.90;99.90
15274;DHT22;7738;49.532;11.156;2023-09-19T00:54:38;13.90;99.90
15274;DHT22;7738;49.532;11.156;2023-09-19T00:57:11;14.00;99.90
15274;DHT22;7738;49.532;11.156;2023-09-19T00:59:42;14.00;99.90
15274;DHT22;7738;49.532;11.156;2023-09-19T01:02:13;14.00;99.90
15274;DHT22;7738;49.532;11.156;2023-09-19T01:04:44;14.00;99.90
15274;DHT22;7738;49.532;11.156;2023-09-19T01:07:15;14.00;99.90
15274;DHT22;7738;49.532;11.156;2023-09-19T01:09:47;14.00;99.90
15274;DHT22;7738;49.532;11.156;2023-09-19T01:12:24;14.00;99.90
15274;DHT22;7738;49.532;11.156;2023-09-19T01:15:01;14.00;99.90
15274;DHT22;7738;49.532;11.156;2023-09-19T01:17:39;14.10;99.90
15274;DHT22;7738;49.532;11.156;2023-09-19T01:20:29;14.00;99.90
15274;DHT22;7738;49.532;11.156;2023-09-19T01:23:12;14.00;99.90
15274;DHT22;7738;49.532;11.156;2023-09-19T01:26:05;13.90;99.90
15274;DHT22;7738;49.532;11.156;2023-09-19T01:28:52;13.90;99.90
15274;DHT22;7738;49.532;11.156;2023-09-19T01:31:31;13.80;99.90
15274;DHT22;7738;49.532;11.156;2023-09-19T01:34:03;13.80;99.90
15274;DHT22;7738;49.532;11.156;2023-09-19T01:36:36;13.80;99.90
15274;DHT22;7738;49.532;11.156;2023-09-19T01:39:07;13.80;99.90
15274;DHT22;7738;49.532;11.156;2023-09-19T01:41:53;13.80;99.90
15274;DHT22;7738;49.532;11.156;2023-09-19T01:44:31;13.80;99.90
15274;DHT22;7738;49.532;11.156;2023-09-19T01:47:13;13.80;99.90
15274;DHT22;7738;49.532;11.156;2023-09-19T01:49:55;13.80;99.90
15274;DHT22;7738;49.532;11.156;2023-09-19T01:52:30;13.90;99.90
15274;DHT22;7738;49.532;11.156;2023-09-19T01:55:06;13.90;99.90
15274;DHT22;7738;49.532;11.156;2023-09-19T01:57:43;13.90;99.90
15274;DHT22;7738;49.532;11.156;2023-09-19T02:00:20;14.00;99.90
15274;DHT22;7738;49.532;11.156;2023-09-19T02:02:56;14.00;99.90
15274;DHT22;7738;49.532;11.156;2023-09-19T02:05:28;14.00;99.90
15274;DHT22;7738;49.532;11.156;2023-09-19T02:07:58;14.00;99.90
15274;DHT22;7738;49.532;11.156;2023-09-19T02:10:28;13.90;99.90
15274;DHT22;7738;49.532;11.156;2023-09-19T02:12:58;13.90;99.90
15274;DHT22;7738;49.532;11.156;2023-09-19T02:15:31;14.00;99.90
15274;DHT22;7738;49.532;11.156;2023-09-19T02:18:06;14.00;99.90
15274;DHT22;7738;49.532;11.156;2023-09-19T02:20:37;14.00;99.90
15274;DHT22;7738;49.532;11.156;2023-09-19T02:23:09;14.00;99.90
15274;DHT22;7738;49.532;11.156;2023-09-19T02:28:10;14.00;99.90
15274;DHT22;7738;49.532;11.156;2023-09-19T02:30:41;14.00;99.90
15274;DHT22;7738;49.532;11.156;2023-09-19T02:33:14;14.00;99.90
15274;DHT22;7738;49.532;11.156;2023-09-19T02:35:44;14.00;99.90
15274;DHT22;7738;49.532;11.156;2023-09-19T02:38:14;14.00;99.90
15274;DHT22;7738;49.532;11.156;2023-09-19T02:40:48;14.00;99.90
15274;DHT22;7738;49.532;11.156;2023-09-19T02:43:19;14.00;99.90
15274;DHT22;7738;49.532;11.156;2023-09-19T02:45:50;14.10;99.90
15274;DHT22;7738;49.532;11.156;2023-09-19T02:48:23;14.00;99.90
15274;DHT22;7738;49.532;11.156;2023-09-19T02:50:54;14.00;99.90
15274;DHT22;7738;49.532;11.156;2023-09-19T02:53:25;14.00;99.90
15274;DHT22;7738;49.532;11.156;2023-09-19T02:55:55;14.00;99.90
15274;DHT22;7738;49.532;11.156;2023-09-19T03:03:32;14.00;99.90
15274;DHT22;7738;49.532;11.156;2023-09-19T03:06:02;14.10;99.90
15274;DHT22;7738;49.532;11.156;2023-09-19T03:13:42;14.00;99.90
15274;DHT22;7738;49.532;11.156;2023-09-19T03:16:13;14.80;99.90
15274;DHT22;7738;49.532;11.156;2023-09-19T03:18:47;14.10;99.90
15274;DHT22;7738;49.532;11.156;2023-09-19T03:21:17;14.00;99.90
15274;DHT22;7738;49.532;11.156;2023-09-19T03:23:49;14.00;99.90
15274;DHT22;7738;49.532;11.156;2023-09-19T03:26:19;14.00;99.90
15274;DHT22;7738;49.532;11.156;2023-09-19T03:28:49;14.00;99.90
15274;DHT22;7738;49.532;11.156;2023-09-19T03:31:20;13.90;99.90
15274;DHT22;7738;49.532;11.156;2023-09-19T03:33:53;14.00;99.90
15274;DHT22;7738;49.532;11.156;2023-09-19T03:36:23;13.80;99.90
15274;DHT22;7738;49.532;11.156;2023-09-19T03:38:55;13.80;99.90
15274;DHT22;7738;49.532;11.156;2023-09-19T03:41:27;13.70;99.90
15274;DHT22;7738;49.532;11.156;2023-09-19T03:43:57;13.70;99.90
15274;DHT22;7738;49.532;11.156;2023-09-19T03:46:28;13.70;99.90
15274;DHT22;7738;49.532;11.156;2023-09-19T03:49:02;13.80;99.90
15274;DHT22;7738;49.532;11.156;2023-09-19T03:54:04;13.70;99.90
15274;DHT22;7738;49.532;11.156;2023-09-19T03:56:35;13.70;99.90
15274;DHT22;7738;49.532;11.156;2023-09-19T04:04:11;13.70;99.90
15274;DHT22;7738;49.532;11.156;2023-09-19T04:06:41;13.60;99.90
15274;DHT22;7738;49.532;11.156;2023-09-19T04:19:16;13.60;99.90
15274;DHT22;7738;49.532;11.156;2023-09-19T04:24:17;13.60;99.90
15274;DHT22;7738;49.532;11.156;2023-09-19T04:29:20;13.60;99.90
15274;DHT22;7738;49.532;11.156;2023-09-19T04:31:50;13.60;99.90
15274;DHT22;7738;49.532;11.156;2023-09-19T04:34:22;13.60;99.90
15274;DHT22;7738;49.532;11.156;2023-09-19T04:36:52;13.60;99.90
15274;DHT22;7738;49.532;11.156;2023-09-19T04:39:25;13.60;99.90
15274;DHT22;7738;49.532;11.156;2023-09-19T04:41:55;13.60;99.90
15274;DHT22;7738;49.532;11.156;2023-09-19T04:44:26;13.70;99.90
15274;DHT22;7738;49.532;11.156;2023-09-19T04:46:56;13.70;99.90
15274;DHT22;7738;49.532;11.156;2023-09-19T04:49:30;13.60;99.90
15274;DHT22;7738;49.532;11.156;2023-09-19T04:57:02;13.70;99.90
15274;DHT22;7738;49.532;11.156;2023-09-19T04:59:33;13.70;99.90
15274;DHT22;7738;49.532;11.156;2023-09-19T05:02:04;13.70;99.90
15274;DHT22;7738;49.532;11.156;2023-09-19T05:04:37;13.70;99.90
15274;DHT22;7738;49.532;11.156;2023-09-19T05:07:08;13.70;99.90
15274;DHT22;7738;49.532;11.156;2023-09-19T05:09:38;13.80;99.90
15274;DHT22;7738;49.532;11.156;2023-09-19T05:12:09;13.80;99.90
15274;DHT22;7738;49.532;11.156;2023-09-19T05:14:40;13.80;99.90
15274;DHT22;7738;49.532;11.156;2023-09-19T05:19:43;13.90;99.90
15274;DHT22;7738;49.532;11.156;2023-09-19T05:24:46;14.00;99.90
15274;DHT22;7738;49.532;11.156;2023-09-19T05:27:16;13.90;99.90
15274;DHT22;7738;49.532;11.156;2023-09-19T05:29:48;14.00;99.90
15274;DHT22;7738;49.532;11.156;2023-09-19T05:32:20;14.00;99.90
15274;DHT22;7738;49.532;11.156;2023-09-19T05:34:53;14.80;99.90
15274;DHT22;7738;49.532;11.156;2023-09-19T05:37:23;14.00;99.90
15274;DHT22;7738;49.532;11.156;2023-09-19T05:49:58;14.20;99.90
15274;DHT22;7738;49.532;11.156;2023-09-19T05:55:00;14.30;99.90
15274;DHT22;7738;49.532;11.156;2023-09-19T06:00:03;14.30;99.90
15274;DHT22;7738;49.532;11.156;2023-09-19T06:05:11;14.40;99.90
15274;DHT22;7738;49.532;11.156;2023-09-19T06:10:12;14.40;99.90
15274;DHT22;7738;49.532;11.156;2023-09-19T06:12:44;14.50;99.90
15274;DHT22;7738;49.532;11.156;2023-09-19T06:15:16;14.50;99.90
15274;DHT22;7738;49.532;11.156;2023-09-19T06:17:47;14.50;99.90
15274;DHT22;7738;49.532;11.156;2023-09-19T06:20:20;14.60;99.90
15274;DHT22;7738;49.532;11.156;2023-09-19T06:22:51;14.60;99.90
15274;DHT22;7738;49.532;11.156;2023-09-19T06:27:53;14.70;99.90
15274;DHT22;7738;49.532;11.156;2023-09-19T06:30:24;14.80;99.90
15274;DHT22;7738;49.532;11.156;2023-09-19T06:32:57;14.80;99.90
15274;DHT22;7738;49.532;11.156;2023-09-19T06:35:32;14.90;99.90
15274;DHT22;7738;49.532;11.156;2023-09-19T06:38:03;14.90;99.90
15274;DHT22;7738;49.532;11.156;2023-09-19T06:40:34;14.90;99.90
15274;DHT22;7738;49.532;11.156;2023-09-19T06:43:06;15.00;99.90
15274;DHT22;7738;49.532;11.156;2023-09-19T06:50:40;15.20;99.90
15274;DHT22;7738;49.532;11.156;2023-09-19T06:53:11;15.20;99.90
15274;DHT22;7738;49.532;11.156;2023-09-19T06:58:12;15.40;99.90
15274;DHT22;7738;49.532;11.156;2023-09-19T07:00:43;15.40;99.90
15274;DHT22;7738;49.532;11.156;2023-09-19T07:03:14;15.50;99.90
15274;DHT22;7738;49.532;11.156;2023-09-19T07:05:50;15.60;99.90
15274;DHT22;7738;49.532;11.156;2023-09-19T07:15:52;15.90;99.90
15274;DHT22;7738;49.532;11.156;2023-09-19T07:18:24;16.00;99.90
15274;DHT22;7738;49.532;11.156;2023-09-19T07:20:59;16.00;99.90
15274;DHT22;7738;49.532;11.156;2023-09-19T07:23:32;16.10;99.90
15274;DHT22;7738;49.532;11.156;2023-09-19T07:28:34;14.80;99.90
15274;DHT22;7738;49.532;11.156;2023-09-19T07:31:04;16.50;99.90
15274;DHT22;7738;49.532;11.156;2023-09-19T07:33:37;16.60;99.90
15274;DHT22;7738;49.532;11.156;2023-09-19T07:36:12;16.60;99.90
15274;DHT22;7738;49.532;11.156;2023-09-19T07:38:43;16.50;99.90
15274;DHT22;7738;49.532;11.156;2023-09-19T07:41:13;16.50;99.90
15274;DHT22;7738;49.532;11.156;2023-09-19T07:46:13;16.40;99.90
15274;DHT22;7738;49.532;11.156;2023-09-19T07:51:18;16.20;99.90
15274;DHT22;7738;49.532;11.156;2023-09-19T07:53:48;16.20;99.90
15274;DHT22;7738;49.532;11.156;2023-09-19T07:56:19;16.20;99.90
15274;DHT22;7738;49.532;11.156;2023-09-19T07:58:50;16.10;99.90
15274;DHT22;7738;49.532;11.156;2023-09-19T08:01:20;16.20;99.90
15274;DHT22;7738;49.532;11.156;2023-09-19T08:06:26;16.20;99.90
15274;DHT22;7738;49.532;11.156;2023-09-19T08:21:40;16.70;99.90
15274;DHT22;7738;49.532;11.156;2023-09-19T08:24:15;16.70;99.90
15274;DHT22;7738;49.532;11.156;2023-09-19T08:26:46;16.60;99.90
15274;DHT22;7738;49.532;11.156;2023-09-19T08:29:18;16.50;99.90
15274;DHT22;7738;49.532;11.156;2023-09-19T08:36:54;16.60;99.90
15274;DHT22;7738;49.532;11.156;2023-09-19T08:41:58;18.90;99.90
15274;DHT22;7738;49.532;11.156;2023-09-19T08:44:29;17.20;99.90
15274;DHT22;7738;49.532;11.156;2023-09-19T08:47:08;17.70;99.90
15274;DHT22;7738;49.532;11.156;2023-09-19T08:49:45;17.50;99.90
15274;DHT22;7738;49.532;11.156;2023-09-19T08:52:27;17.60;99.90
15274;DHT22;7738;49.532;11.156;2023-09-19T08:54:59;17.70;99.90
15274;DHT22;7738;49.532;11.156;2023-09-19T08:57:34;17.90;99.90
15274;DHT22;7738;49.532;11.156;2023-09-19T09:00:10;18.00;99.90
15274;DHT22;7738;49.532;11.156;2023-09-19T09:02:42;18.20;99.90
15274;DHT22;7738;49.532;11.156;2023-09-19T09:05:15;18.40;99.90
15274;DHT22;7738;49.532;11.156;2023-09-19T09:07:53;18.40;99.90
15274;DHT22;7738;49.532;11.156;2023-09-19T09:10:23;18.20;99.90
15274;DHT22;7738;49.532;11.156;2023-09-19T09:15:25;18.20;99.90
15274;DHT22;7738;49.532;11.156;2023-09-19T09:17:56;18.10;99.90
15274;DHT22;7738;49.532;11.156;2023-09-19T09:22:59;17.90;99.90
15274;DHT22;7738;49.532;11.156;2023-09-19T09:25:47;17.90;99.90
15274;DHT22;7738;49.532;11.156;2023-09-19T09:28:19;18.00;99.90
15274;DHT22;7738;49.532;11.156;2023-09-19T09:30:50;18.10;99.90
15274;DHT22;7738;49.532;11.156;2023-09-19T09:33:21;18.10;99.90
15274;DHT22;7738;49.532;11.156;2023-09-19T09:35:53;18.10;99.90
15274;DHT22;7738;49.532;11.156;2023-09-19T09:38:28;18.10;99.90
15274;DHT22;7738;49.532;11.156;2023-09-19T09:41:00;18.20;99.90
15274;DHT22;7738;49.532;11.156;2023-09-19T09:43:35;18.10;99.90
15274;DHT22;7738;49.532;11.156;2023-09-19T09:46:14;18.10;99.90
15274;DHT22;7738;49.532;11.156;2023-09-19T09:49:01;18.40;99.90
15274;DHT22;7738;49.532;11.156;2023-09-19T09:52:00;18.40;99.90
15274;DHT22;7738;49.532;11.156;2023-09-19T09:54:58;18.90;99.90
15274;DHT22;7738;49.532;11.156;2023-09-19T10:00:05;17.00;99.90
15274;DHT22;7738;49.532;11.156;2023-09-19T10:02:47;19.20;99.90
15274;DHT22;7738;49.532;11.156;2023-09-19T10:05:19;19.00;99.90
15274;DHT22;7738;49.532;11.156;2023-09-19T10:07:56;19.10;99.90
15274;DHT22;7738;49.532;11.156;2023-09-19T10:10:35;19.30;99.90
15274;DHT22;7738;49.532;11.156;2023-09-19T10:13:22;19.50;99.90
15274;DHT22;7738;49.532;11.156;2023-09-19T10:15:58;19.60;99.90
15274;DHT22;7738;49.532;11.156;2023-09-19T10:18:31;19.40;99.90
15274;DHT22;7738;49.532;11.156;2023-09-19T10:21:03;19.10;99.90
15274;DHT22;7738;49.532;11.156;2023-09-19T10:23:36;19.10;99.90
15274;DHT22;7738;49.532;11.156;2023-09-19T10:26:11;19.10;99.90
15274;DHT22;7738;49.532;11.156;2023-09-19T10:28:41;19.10;99.90
15274;DHT22;7738;49.532;11.156;2023-09-19T10:31:18;19.60;99.90
15274;DHT22;7738;49.532;11.156;2023-09-19T10:33:51;18.90;99.90
15274;DHT22;7738;49.532;11.156;2023-09-19T10:36:24;18.80;99.90
15274;DHT22;7738;49.532;11.156;2023-09-19T10:38:56;18.80;99.90
15274;DHT22;7738;49.532;11.156;2023-09-19T10:41:32;18.70;99.90
15274;DHT22;7738;49.532;11.156;2023-09-19T10:44:04;18.80;99.90
15274;DHT22;7738;49.532;11.156;2023-09-19T10:46:37;18.90;99.90
15274;DHT22;7738;49.532;11.156;2023-09-19T10:49:10;18.70;99.90
15274;DHT22;7738;49.532;11.156;2023-09-19T10:51:42;18.60;99.90
15274;DHT22;7738;49.532;11.156;2023-09-19T10:54:16;18.70;99.90
15274;DHT22;7738;49.532;11.156;2023-09-19T10:56:51;18.70;99.90
15274;DHT22;7738;49.532;11.156;2023-09-19T10:59:22;19.10;99.90
15274;DHT22;7738;49.532;11.156;2023-09-19T11:01:53;19.20;99.90
15274;DHT22;7738;49.532;11.156;2023-09-19T11:04:27;19.10;99.90
15274;DHT22;7738;49.532;11.156;2023-09-19T11:07:02;19.10;99.90
15274;DHT22;7738;49.532;11.156;2023-09-19T11:09:49;19.10;99.90
15274;DHT22;7738;49.532;11.156;2023-09-19T11:12:50;19.00;99.90
15274;DHT22;7738;49.532;11.156;2023-09-19T11:18:51;18.60;99.90
15274;DHT22;7738;49.532;11.156;2023-09-19T11:21:52;18.50;99.90
15274;DHT22;7738;49.532;11.156;2023-09-19T11:24:30;18.50;99.90
15274;DHT22;7738;49.532;11.156;2023-09-19T11:27:14;18.90;99.90
15274;DHT22;7738;49.532;11.156;2023-09-19T11:29:48;18.80;99.90
15274;DHT22;7738;49.532;11.156;2023-09-19T11:36:02;19.70;99.90
15274;DHT22;7738;49.532;11.156;2023-09-19T11:41:36;19.60;99.90
15274;DHT22;7738;49.532;11.156;2023-09-19T11:44:31;19.50;99.60
15274;DHT22;7738;49.532;11.156;2023-09-19T11:47:09;20.20;99.30
15274;DHT22;7738;49.532;11.156;2023-09-19T11:49:41;20.60;98.10
15274;DHT22;7738;49.532;11.156;2023-09-19T11:52:18;20.40;97.00
15274;DHT22;7738;49.532;11.156;2023-09-19T11:54:55;20.10;97.50
15274;DHT22;7738;49.532;11.156;2023-09-19T11:57:26;20.10;98.10
15274;DHT22;7738;49.532;11.156;2023-09-19T11:59:57;20.10;97.20
15274;DHT22;7738;49.532;11.156;2023-09-19T12:02:42;20.50;96.60
15274;DHT22;7738;49.532;11.156;2023-09-19T12:05:15;20.90;96.00
15274;DHT22;7738;49.532;11.156;2023-09-19T12:07:48;20.90;96.30
15274;DHT22;7738;49.532;11.156;2023-09-19T12:12:50;21.50;92.80
15274;DHT22;7738;49.532;11.156;2023-09-19T12:17:58;21.80;91.30
15274;DHT22;7738;49.532;11.156;2023-09-19T12:20:43;21.70;90.20
15274;DHT22;7738;49.532;11.156;2023-09-19T12:23:16;21.40;89.70
15274;DHT22;7738;49.532;11.156;2023-09-19T12:25:47;21.20;91.00
15274;DHT22;7738;49.532;11.156;2023-09-19T12:28:20;21.00;89.80
15274;DHT22;7738;49.532;11.156;2023-09-19T12:30:52;20.80;89.40
15274;DHT22;7738;49.532;11.156;2023-09-19T12:33:26;20.90;90.50
15274;DHT22;7738;49.532;11.156;2023-09-19T12:38:27;21.20;90.50
15274;DHT22;7738;49.532;11.156;2023-09-19T12:41:02;21.50;90.10
15274;DHT22;7738;49.532;11.156;2023-09-19T12:43:35;21.90;90.10
15274;DHT22;7738;49.532;11.156;2023-09-19T12:46:07;22.10;87.10
15274;DHT22;7738;49.532;11.156;2023-09-19T12:48:40;22.10;84.40
15274;DHT22;7738;49.532;11.156;2023-09-19T12:51:11;23.00;86.10
15274;DHT22;7738;49.532;11.156;2023-09-19T12:53:44;21.80;84.10
15274;DHT22;7738;49.532;11.156;2023-09-19T12:56:17;21.90;85.60
15274;DHT22;7738;49.532;11.156;2023-09-19T12:58:51;21.90;82.90
15274;DHT22;7738;49.532;11.156;2023-09-19T13:01:25;21.80;82.60
15274;DHT22;7738;49.532;11.156;2023-09-19T13:04:17;21.60;82.90
15274;DHT22;7738;49.532;11.156;2023-09-19T13:06:53;21.80;84.40
15274;DHT22;7738;49.532;11.156;2023-09-19T13:12:03;22.10;85.10
15274;DHT22;7738;49.532;11.156;2023-09-19T13:17:09;22.20;82.60
15274;DHT22;7738;49.532;11.156;2023-09-19T13:19:51;22.40;84.00
15274;DHT22;7738;49.532;11.156;2023-09-19T13:22:38;22.00;83.20
15274;DHT22;7738;49.532;11.156;2023-09-19T13:25:13;21.90;85.70
15274;DHT22;7738;49.532;11.156;2023-09-19T13:27:47;21.70;85.50
15274;DHT22;7738;49.532;11.156;2023-09-19T13:30:20;21.70;86.40
15274;DHT22;7738;49.532;11.156;2023-09-19T13:33:03;21.70;85.60
15274;DHT22;7738;49.532;11.156;2023-09-19T13:35:37;21.80;86.00
15274;DHT22;7738;49.532;11.156;2023-09-19T13:45:42;22.10;83.20
15274;DHT22;7738;49.532;11.156;2023-09-19T13:48:12;22.00;81.50
15274;DHT22;7738;49.532;11.156;2023-09-19T13:50:45;22.20;84.10
15274;DHT22;7738;49.532;11.156;2023-09-19T13:55:46;22.40;81.40
15274;DHT22;7738;49.532;11.156;2023-09-19T13:58:17;22.70;85.70
15274;DHT22;7738;49.532;11.156;2023-09-19T14:03:22;22.90;80.10
15274;DHT22;7738;49.532;11.156;2023-09-19T14:05:58;23.20;82.40
15274;DHT22;7738;49.532;11.156;2023-09-19T14:08:28;23.40;82.30
15274;DHT22;7738;49.532;11.156;2023-09-19T14:11:05;23.00;81.30
15274;DHT22;7738;49.532;11.156;2023-09-19T14:18:36;22.40;81.30
15274;DHT22;7738;49.532;11.156;2023-09-19T14:21:09;22.40;83.30
15274;DHT22;7738;49.532;11.156;2023-09-19T14:26:11;22.50;84.20
15274;DHT22;7738;49.532;11.156;2023-09-19T14:36:15;21.90;79.90
15274;DHT22;7738;49.532;11.156;2023-09-19T14:41:18;21.60;81.70
15274;DHT22;7738;49.532;11.156;2023-09-19T14:43:48;21.40;81.10
15274;DHT22;7738;49.532;11.156;2023-09-19T14:46:19;21.20;82.40
15274;DHT22;7738;49.532;11.156;2023-09-19T14:51:25;21.80;83.10
15274;DHT22;7738;49.532;11.156;2023-09-19T14:53:55;21.90;81.30
15274;DHT22;7738;49.532;11.156;2023-09-19T14:58:57;22.00;82.50
15274;DHT22;7738;49.532;11.156;2023-09-19T15:01:28;21.80;81.10
15274;DHT22;7738;49.532;11.156;2023-09-19T15:03:59;21.50;82.40
15274;DHT22;7738;49.532;11.156;2023-09-19T15:06:32;21.40;82.90
15274;DHT22;7738;49.532;11.156;2023-09-19T15:11:35;21.50;83.20
15274;DHT22;7738;49.532;11.156;2023-09-19T15:21:40;21.50;85.40
15274;DHT22;7738;49.532;11.156;2023-09-19T15:26:42;21.30;84.50
15274;DHT22;7738;49.532;11.156;2023-09-19T15:29:13;21.10;83.90
15274;DHT22;7738;49.532;11.156;2023-09-19T15:31:43;21.00;83.30
15274;DHT22;7738;49.532;11.156;2023-09-19T15:36:46;20.70;85.10
15274;DHT22;7738;49.532;11.156;2023-09-19T15:44:21;20.40;87.00
15274;DHT22;7738;49.532;11.156;2023-09-19T15:46:53;20.30;88.20
15274;DHT22;7738;49.532;11.156;2023-09-19T15:49:24;20.10;88.20
15274;DHT22;7738;49.532;11.156;2023-09-19T15:51:57;20.00;86.60
15274;DHT22;7738;49.532;11.156;2023-09-19T15:54:27;19.90;86.50
15274;DHT22;7738;49.532;11.156;2023-09-19T15:56:59;19.70;87.70
15274;DHT22;7738;49.532;11.156;2023-09-19T15:59:29;19.50;88.60
15274;DHT22;7738;49.532;11.156;2023-09-19T16:01:59;19.60;88.20
15274;DHT22;7738;49.532;11.156;2023-09-19T16:04:30;19.50;88.10
15274;DHT22;7738;49.532;11.156;2023-09-19T16:07:04;19.50;88.80
15274;DHT22;7738;49.532;11.156;2023-09-19T16:12:06;19.30;89.40
15274;DHT22;7738;49.532;11.156;2023-09-19T16:17:07;19.20;90.00
15274;DHT22;7738;49.532;11.156;2023-09-19T16:19:38;19.10;90.40
15274;DHT22;7738;49.532;11.156;2023-09-19T16:22:11;19.20;90.40
15274;DHT22;7738;49.532;11.156;2023-09-19T16:24:41;19.10;90.40
15274;DHT22;7738;49.532;11.156;2023-09-19T16:27:12;19.00;90.80
15274;DHT22;7738;49.532;11.156;2023-09-19T16:32:15;18.90;91.00
15274;DHT22;7738;49.532;11.156;2023-09-19T16:37:20;18.70;91.70
15274;DHT22;7738;49.532;11.156;2023-09-19T16:39:50;18.60;91.90
15274;DHT22;7738;49.532;11.156;2023-09-19T16:42:20;18.60;92.30
15274;DHT22;7738;49.532;11.156;2023-09-19T16:44:51;18.50;92.50
15274;DHT22;7738;49.532;11.156;2023-09-19T16:47:21;18.50;92.60
15274;DHT22;7738;49.532;11.156;2023-09-19T16:52:25;18.20;93.20
15274;DHT22;7738;49.532;11.156;2023-09-19T17:07:31;17.70;95.90
15274;DHT22;7738;49.532;11.156;2023-09-19T17:15:03;17.40;97.20
15274;DHT22;7738;49.532;11.156;2023-09-19T17:20:06;17.20;98.20
15274;DHT22;7738;49.532;11.156;2023-09-19T17:22:39;17.10;98.40
15274;DHT22;7738;49.532;11.156;2023-09-19T17:25:10;17.00;99.00
15274;DHT22;7738;49.532;11.156;2023-09-19T17:30:12;16.90;99.40
15274;DHT22;7738;49.532;11.156;2023-09-19T17:35:14;16.80;99.90
15274;DHT22;7738;49.532;11.156;2023-09-19T17:37:48;16.80;99.90
15274;DHT22;7738;49.532;11.156;2023-09-19T17:52:52;16.30;99.90
15274;DHT22;7738;49.532;11.156;2023-09-19T18:00:25;16.00;99.90
15274;DHT22;7738;49.532;11.156;2023-09-19T18:05:26;15.90;99.90
15274;DHT22;7738;49.532;11.156;2023-09-19T18:07:59;15.90;99.90
15274;DHT22;7738;49.532;11.156;2023-09-19T18:13:00;15.80;99.90
15274;DHT22;7738;49.532;11.156;2023-09-19T18:15:30;15.70;99.90
15274;DHT22;7738;49.532;11.156;2023-09-19T18:18:05;15.60;99.90
15274;DHT22;7738;49.532;11.156;2023-09-19T18:20:36;15.60;99.90
15274;DHT22;7738;49.532;11.156;2023-09-19T18:23:10;15.50;99.90
15274;DHT22;7738;49.532;11.156;2023-09-19T18:25:40;15.50;99.90
15274;DHT22;7738;49.532;11.156;2023-09-19T18:28:10;15.40;99.90
15274;DHT22;7738;49.532;11.156;2023-09-19T18:30:41;15.30;99.90
15274;DHT22;7738;49.532;11.156;2023-09-19T18:35:42;15.20;99.90
15274;DHT22;7738;49.532;11.156;2023-09-19T18:38:14;15.20;99.90
15274;DHT22;7738;49.532;11.156;2023-09-19T18:43:17;15.10;99.90
15274;DHT22;7738;49.532;11.156;2023-09-19T18:45:55;15.00;99.90
15274;DHT22;7738;49.532;11.156;2023-09-19T18:50:55;14.90;99.90
15274;DHT22;7738;49.532;11.156;2023-09-19T18:53:28;14.80;99.90
15274;DHT22;7738;49.532;11.156;2023-09-19T18:56:05;14.80;99.90
15274;DHT22;7738;49.532;11.156;2023-09-19T18:58:35;14.80;99.90
15274;DHT22;7738;49.532;11.156;2023-09-19T19:01:08;14.70;99.90
15274;DHT22;7738;49.532;11.156;2023-09-19T19:03:39;14.70;99.90
15274;DHT22;7738;49.532;11.156;2023-09-19T19:06:14;14.60;99.90
15274;DHT22;7738;49.532;11.156;2023-09-19T19:08:47;14.50;99.90
15274;DHT22;7738;49.532;11.156;2023-09-19T19:13:52;14.30;99.90
15274;DHT22;7738;49.532;11.156;2023-09-19T19:16:22;14.20;99.90
15274;DHT22;7738;49.532;11.156;2023-09-19T19:23:57;14.10;99.90
15274;DHT22;7738;49.532;11.156;2023-09-19T19:26:27;14.00;99.90
15274;DHT22;7738;49.532;11.156;2023-09-19T19:28:58;13.90;99.90
15274;DHT22;7738;49.532;11.156;2023-09-19T19:31:28;14.00;99.90
15274;DHT22;7738;49.532;11.156;2023-09-19T19:34:01;13.90;99.90
15274;DHT22;7738;49.532;11.156;2023-09-19T19:39:07;13.80;99.90
15274;DHT22;7738;49.532;11.156;2023-09-19T19:41:39;13.80;99.90
15274;DHT22;7738;49.532;11.156;2023-09-19T19:49:12;13.60;99.90
15274;DHT22;7738;49.532;11.156;2023-09-19T19:54:16;13.50;99.90
15274;DHT22;7738;49.532;11.156;2023-09-19T20:01:47;13.40;99.90
15274;DHT22;7738;49.532;11.156;2023-09-19T20:04:18;13.30;99.90
15274;DHT22;7738;49.532;11.156;2023-09-19T20:09:21;13.20;99.90
15274;DHT22;7738;49.532;11.156;2023-09-19T20:11:52;13.20;99.90
15274;DHT22;7738;49.532;11.156;2023-09-19T20:14:22;13.20;99.90
15274;DHT22;7738;49.532;11.156;2023-09-19T20:19:23;13.10;99.90
15274;DHT22;7738;49.532;11.156;2023-09-19T20:21:59;13.00;99.90
15274;DHT22;7738;49.532;11.156;2023-09-19T20:24:35;13.00;99.90
15274;DHT22;7738;49.532;11.156;2023-09-19T20:27:05;12.90;99.90
15274;DHT22;7738;49.532;11.156;2023-09-19T20:29:35;13.00;99.90
15274;DHT22;7738;49.532;11.156;2023-09-19T20:32:06;12.90;99.90
15274;DHT22;7738;49.532;11.156;2023-09-19T20:34:36;12.90;99.90
15274;DHT22;7738;49.532;11.156;2023-09-19T20:37:08;12.90;99.90
15274;DHT22;7738;49.532;11.156;2023-09-19T20:39:41;12.80;99.90
15274;DHT22;7738;49.532;11.156;2023-09-19T20:47:14;12.70;99.90
15274;DHT22;7738;49.532;11.156;2023-09-19T20:49:44;12.70;99.90
15274;DHT22;7738;49.532;11.156;2023-09-19T20:52:15;12.70;99.90
15274;DHT22;7738;49.532;11.156;2023-09-19T20:54:48;12.70;99.90
15274;DHT22;7738;49.532;11.156;2023-09-19T20:57:18;12.60;99.90
15274;DHT22;7738;49.532;11.156;2023-09-19T20:59:49;12.60;99.90
15274;DHT22;7738;49.532;11.156;2023-09-19T21:09:59;12.50;99.90
15274;DHT22;7738;49.532;11.156;2023-09-19T21:12:32;12.50;99.90
15274;DHT22;7738;49.532;11.156;2023-09-19T21:15:03;12.50;99.90
15274;DHT22;7738;49.532;11.156;2023-09-19T21:20:11;11.80;99.90
15274;DHT22;7738;49.532;11.156;2023-09-19T21:22:45;12.30;99.90
15274;DHT22;7738;49.532;11.156;2023-09-19T21:25:19;12.20;99.90
15274;DHT22;7738;49.532;11.156;2023-09-19T21:30:20;12.20;99.90